TFM - Tactical Decision Aid
ID: Runway Winds: CIG/VIS Threshold:

KSTL - St Louis/Lambert Int, MO, US

Updated at: 1822 UTC 19 Aug 2019
Latest TAF at: 1737 UTC 19 Aug 2019

TAF Board

Time1751Z 19/19Z 19/20Z 19/21Z 19/22Z 19/23Z 20/00Z 20/01Z 20/02Z 20/03Z 20/04Z 20/05Z 20/06Z 20/07Z>>
Type OBS PRVL PRVL PRVL PRVL PRVL PRVL PRVL PRVL PRVL PRVL PRVL PRVL PRVL
VIS 10 >6 >6 >6 >6 >6 >6 >6 >6 >6 >6 >6 >6 >6
CIG -- -- -- -- -- -- -- -- -- -- -- -- -- --
Cover FEW SCT SCT SCT SCT SCT SCT SKC SKC SKC SKC SKC SKC SKC
FltCat VFR VFR VFR VFR VFR VFR VFR VFR VFR VFR VFR VFR VFR VFR
WX -- -- -- -- -- -- -- -- -- -- -- -- -- --
WDir 310 VRB VRB VRB VRB VRB VRB VRB VRB VRB VRB VRB VRB VRB
WSpd 4 5 5 5 5 5 5 3 3 3 3 3 3 3
WGst -- -- -- -- -- -- -- -- -- -- -- -- -- --

TDA Impact Legend

  None Marginal Slight Moderate High
Visibility (sm) >5 3≤X≤5 1≤X<3 0.5≤X<1 <0.5
Ceiling (100 ft) >30 10≤X≤30 4≤X<10 2≤X<4 <2
Wind Speed (kt) <15 15≤X<25 25≤X<30 ≥30
Wind Gust (kt) <15 15≤X<25 25≤X<35 ≥35
Weather No Wx Reported VCTS -TS,-FZRA TS,FZRA +TS,+FZRA
TAF
KSTL 191737Z 1918/2024 VRB05KT P6SM SCT050
  FM200100 VRB03KT P6SM SKC
  FM201200 22006KT P6SM BKN150
  FM201600 VRB05KT 6SM -RA VCTS OVC060CB
  FM201900 VRB05KT P6SM BKN200


METAR
KSTL 191751Z 31004KT 10SM FEW050 FEW150 34/24 A3001 RMK AO2 SLP147 T03390239 10339 20244 58005
KSTL 191651Z 15004KT 10SM FEW060 32/24 A3002 RMK AO2 SLP150 T03220239
KSTL 191551Z VRB03KT 10SM FEW070 FEW250 31/23 A3002 RMK AO2 SLP152 T03060233

Radar Display
Forecast Discussion